Time;durP1;ratioP1;P1;durP2;ratioP2;P2;SDS_P1;SDS_P2;PMS_P1;PMS_P2;Temp;Humidity;BMP_temperature;BMP_pressure;BME280_temperature;BME280_humidity;BME280_pressure;Samples;Min_cycle;Max_cycle;Signal;HPM_P1;HPM_P2
2021/05/07 00:01:16;;;;;;;4.05;2.25;;;;;;;-139.48;100.00;61774.03;4998833;28;20049;-66
2021/05/07 00:04:01;;;;;;;2.67;2.00;;;;;;;-139.48;100.00;61774.03;4998706;28;20053;-66
2021/05/07 00:06:47;;;;;;;2.63;2.20;;;;;;;-139.48;100.00;61774.03;4998650;28;20052;-65
2021/05/07 00:09:31;;;;;;;2.72;2.40;;;;;;;-139.48;100.00;61774.03;4999193;28;20442;-66
2021/05/07 00:12:15;;;;;;;3.60;2.65;;;;;;;-139.48;100.00;61774.03;4998561;28;20100;-66
2021/05/07 00:14:59;;;;;;;2.80;2.40;;;;;;;-139.48;100.00;61774.03;4998498;28;20415;-65
2021/05/07 00:17:43;;;;;;;2.75;2.53;;;;;;;-139.48;100.00;61774.03;4999538;28;20525;-66
2021/05/07 00:20:26;;;;;;;3.28;2.97;;;;;;;-139.48;100.00;61774.03;4984755;28;20049;-66
2021/05/07 00:23:10;;;;;;;4.30;2.40;;;;;;;-139.48;100.00;61774.03;4998524;28;20101;-66
2021/05/07 00:25:56;;;;;;;3.83;3.05;;;;;;;-139.48;100.00;61774.03;4999244;28;20053;-66
2021/05/07 00:28:40;;;;;;;3.72;3.08;;;;;;;-139.48;100.00;61774.03;4998306;28;20097;-65
2021/05/07 00:31:24;;;;;;;;;;;;;;;-139.48;100.00;61774.03;4998585;28;20053;-66
2021/05/07 00:34:08;;;;;;;6.47;2.90;;;;;;;-139.48;100.00;61774.03;4999187;28;19920;-66
2021/05/07 00:36:52;;;;;;;5.88;2.90;;;;;;;-139.48;100.00;61774.03;4998439;28;20053;-66
2021/05/07 00:39:36;;;;;;;3.88;3.15;;;;;;;-139.48;100.00;61774.03;4998117;28;20514;-65
2021/05/07 00:42:19;;;;;;;3.63;3.00;;;;;;;-139.48;100.00;61774.03;4999210;28;20104;-65
2021/05/07 00:45:05;;;;;;;3.60;3.00;;;;;;;-139.48;100.00;61774.03;4999276;28;20521;-66
2021/05/07 00:47:58;;;;;;;5.45;3.50;;;;;;;-139.48;100.00;61774.03;4998239;28;20053;-65
2021/05/07 00:50:43;;;;;;;3.72;3.22;;;;;;;-139.48;100.00;61774.03;4998015;28;20100;-66
2021/05/07 00:53:28;;;;;;;4.38;3.10;;;;;;;-139.48;100.00;61774.03;4997938;28;20049;-66
2021/05/07 00:56:12;;;;;;;4.20;3.10;;;;;;;-139.48;100.00;61774.03;4998455;28;20144;-66
2021/05/07 00:58:56;;;;;;;3.80;3.33;;;;;;;-139.48;100.00;61774.03;4997990;28;20049;-66
2021/05/07 01:01:40;;;;;;;6.38;4.00;;;;;;;-139.48;100.00;61774.03;4984156;28;20391;-66
2021/05/07 01:04:25;;;;;;;4.55;3.22;;;;;;;-139.48;100.00;61774.03;4994538;28;20470;-66
2021/05/07 01:07:10;;;;;;;4.05;3.20;;;;;;;-139.48;100.00;61774.03;4996020;28;20508;-66
2021/05/07 01:09:54;;;;;;;4.50;3.63;;;;;;;-139.48;100.00;61774.03;4994548;28;20049;-66
2021/05/07 01:12:39;;;;;;;3.88;3.40;;;;;;;-139.48;100.00;61774.03;4994946;28;20101;-65
2021/05/07 01:15:24;;;;;;;4.35;3.38;;;;;;;-139.48;100.00;61774.03;4995583;28;20100;-66
2021/05/07 01:18:09;;;;;;;4.53;3.30;;;;;;;-139.48;100.00;61774.03;4994766;28;20057;-65
2021/05/07 01:20:53;;;;;;;4.05;3.50;;;;;;;-139.48;100.00;61774.03;4994701;28;20462;-65
2021/05/07 01:23:37;;;;;;;4.45;3.63;;;;;;;-139.48;100.00;61774.03;4994668;28;20105;-65
2021/05/07 01:26:21;;;;;;;4.40;3.75;;;;;;;-139.48;100.00;61774.03;4980637;28;20052;-65
2021/05/07 01:29:12;;;;;;;4.88;3.70;;;;;;;-139.48;100.00;61774.03;4980501;28;20037;-65
2021/05/07 01:31:57;;;;;;;6.28;3.88;;;;;;;-139.48;100.00;61774.03;4994334;28;20073;-66
2021/05/07 01:34:41;;;;;;;4.55;3.65;;;;;;;-139.48;100.00;61774.03;4995494;28;20053;-66
2021/05/07 01:37:25;;;;;;;4.68;3.80;;;;;;;-139.48;100.00;61774.03;4995532;28;20181;-66
2021/05/07 01:40:32;;;;;;;4.85;3.80;;;;;;;-139.48;100.00;61774.03;4994053;28;20049;-66
2021/05/07 01:43:17;;;;;;;4.75;3.30;;;;;;;-139.48;100.00;61774.03;4995359;28;20105;-66
2021/05/07 01:46:01;;;;;;;4.00;3.20;;;;;;;-139.48;100.00;61774.03;4994189;28;20133;-66
2021/05/07 01:48:45;;;;;;;5.30;4.00;;;;;;;-139.48;100.00;61774.03;4995193;28;20053;-66
2021/05/07 01:51:29;;;;;;;3.63;3.05;;;;;;;-139.48;100.00;61774.03;4980742;28;20054;-66
2021/05/07 01:54:13;;;;;;;5.20;3.35;;;;;;;-139.48;100.00;61774.03;4994176;28;20140;-66
2021/05/07 01:56:56;;;;;;;5.30;3.42;;;;;;;-139.48;100.00;61774.03;4993920;28;20177;-66
2021/05/07 01:59:40;;;;;;;3.50;2.90;;;;;;;-139.48;100.00;61774.03;4980199;28;20050;-66
2021/05/07 02:02:24;;;;;;;3.85;3.40;;;;;;;-139.48;100.00;61774.03;4994273;28;20510;-66
2021/05/07 02:05:09;;;;;;;8.20;3.42;;;;;;;-139.48;100.00;61774.03;4993990;28;20541;-66
2021/05/07 02:07:53;;;;;;;3.53;3.20;;;;;;;-139.48;100.00;61774.03;4979976;28;20409;-65
2021/05/07 02:10:38;;;;;;;2.83;2.55;;;;;;;-139.48;100.00;61774.03;4980324;28;20062;-66
2021/05/07 02:13:22;;;;;;;3.53;3.17;;;;;;;-139.48;100.00;61774.03;4996894;28;20185;-65
2021/05/07 02:16:06;;;;;;;4.03;3.10;;;;;;;-139.48;100.00;61774.03;4993739;28;20057;-65
2021/05/07 02:18:50;;;;;;;3.53;2.90;;;;;;;-139.48;100.00;61774.03;4979884;28;20192;-65
2021/05/07 02:21:35;;;;;;;3.40;3.05;;;;;;;-139.48;100.00;61774.03;4994587;28;20049;-65
2021/05/07 02:24:19;;;;;;;4.32;3.30;;;;;;;-139.48;100.00;61774.03;4993929;28;20100;-65
2021/05/07 02:27:04;;;;;;;6.70;3.22;;;;;;;-139.48;100.00;61774.03;4994608;28;20077;-65
2021/05/07 02:29:47;;;;;;;4.30;3.70;;;;;;;-139.48;100.00;61774.03;4993438;28;20093;-65
2021/05/07 02:32:31;;;;;;;5.05;3.30;;;;;;;-139.48;100.00;61774.03;4993538;28;20049;-65
2021/05/07 02:35:16;;;;;;;5.85;4.38;;;;;;;-139.48;100.00;61774.03;4994555;28;20407;-66
2021/05/07 02:38:00;;;;;;;5.70;3.50;;;;;;;-139.48;100.00;61774.03;4993280;28;20053;-65
2021/05/07 02:40:44;;;;;;;5.20;3.47;;;;;;;-139.48;100.00;61774.03;4994391;28;20049;-65
2021/05/07 02:43:30;;;;;;;5.22;3.92;;;;;;;-139.48;100.00;61774.03;4994618;28;20101;-65
2021/05/07 02:46:15;;;;;;;10.32;3.88;;;;;;;-139.48;100.00;61774.03;4993352;28;20052;-65
2021/05/07 02:49:00;;;;;;;4.50;3.72;;;;;;;-139.48;100.00;61774.03;4992896;28;20044;-65
2021/05/07 02:51:44;;;;;;;7.35;4.07;;;;;;;-139.48;100.00;61774.03;4994214;28;20061;-65
2021/05/07 02:54:29;;;;;;;5.13;4.50;;;;;;;-139.48;100.00;61774.03;4993084;28;20092;-65
2021/05/07 02:57:13;;;;;;;4.97;3.83;;;;;;;-139.48;100.00;61774.03;4979233;28;20515;-65
2021/05/07 02:59:57;;;;;;;;;;;;;;;-139.48;100.00;61774.03;4993172;28;20069;-65
2021/05/07 03:02:41;;;;;;;3.72;3.25;;;;;;;-139.48;100.00;61774.03;4994080;28;19920;-65
2021/05/07 03:05:25;;;;;;;4.95;4.05;;;;;;;-139.48;100.00;61774.03;4993968;28;20415;-65
2021/05/07 03:08:09;;;;;;;3.70;3.03;;;;;;;-139.48;100.00;61774.03;4979057;28;20502;-65
2021/05/07 03:10:53;;;;;;;7.18;4.03;;;;;;;-139.48;100.00;61774.03;4979141;28;20053;-66
2021/05/07 03:13:37;;;;;;;4.25;3.38;;;;;;;-139.48;100.00;61774.03;4992590;28;20058;-66
2021/05/07 03:16:22;;;;;;;3.55;3.15;;;;;;;-139.48;100.00;61774.03;4992604;28;20177;-66
2021/05/07 03:19:06;;;;;;;4.78;3.60;;;;;;;-139.48;100.00;61774.03;4993612;28;20442;-66
2021/05/07 03:21:49;;;;;;;5.45;3.22;;;;;;;-139.48;100.00;61774.03;4993714;28;20080;-65
2021/05/07 03:24:33;;;;;;;6.20;2.92;;;;;;;-139.48;100.00;61774.03;4993688;28;20414;-66
2021/05/07 03:27:19;;;;;;;6.88;3.38;;;;;;;-139.48;100.00;61774.03;4993185;28;20053;-66
2021/05/07 03:30:06;;;;;;;4.13;3.45;;;;;;;-139.48;100.00;61774.03;4993613;28;20472;-66
2021/05/07 03:32:50;;;;;;;8.93;3.90;;;;;;;-139.48;100.00;61774.03;4992579;28;20045;-66
2021/05/07 03:35:35;;;;;;;6.07;3.30;;;;;;;-139.48;100.00;61774.03;4993360;28;20411;-66
2021/05/07 03:38:19;;;;;;;4.68;3.20;;;;;;;-139.48;100.00;61774.03;4992277;28;20045;-65
2021/05/07 03:41:03;;;;;;;4.50;3.42;;;;;;;-139.48;100.00;61774.03;4993579;28;20053;-66
2021/05/07 03:43:47;;;;;;;5.70;3.25;;;;;;;-139.48;100.00;61774.03;4993529;28;20503;-66
2021/05/07 03:46:31;;;;;;;5.70;3.17;;;;;;;-139.48;100.00;61774.03;4992375;28;20084;-65
2021/05/07 03:49:15;;;;;;;4.25;3.38;;;;;;;-139.48;100.00;61774.03;4993122;28;20049;-65
2021/05/07 03:52:01;;;;;;;4.47;3.42;;;;;;;-139.48;100.00;61774.03;4978991;28;20129;-65
2021/05/07 03:54:45;;;;;;;5.60;3.78;;;;;;;-139.48;100.00;61774.03;4993350;28;20100;-66
2021/05/07 03:57:29;;;;;;;6.15;4.03;;;;;;;-139.48;100.00;61774.03;4993382;28;20101;-65
2021/05/07 04:00:13;;;;;;;6.40;3.40;;;;;;;-139.48;100.00;61774.03;4993208;28;20053;-65
2021/05/07 04:02:57;;;;;;;4.78;3.72;;;;;;;-139.48;100.00;61774.03;4993418;28;20077;-66
2021/05/07 04:05:42;;;;;;;5.10;4.22;;;;;;;-139.48;100.00;61774.03;4993302;28;20054;-66
2021/05/07 04:08:28;;;;;;;5.03;3.92;;;;;;;-139.48;100.00;61774.03;4991801;28;20050;-65
2021/05/07 04:11:29;;;;;;;4.60;3.90;;;;;;;-139.48;100.00;61774.03;4993489;28;20069;-65
2021/05/07 04:14:12;;;;;;;6.72;3.65;;;;;;;-139.48;100.00;61774.03;4992512;28;20134;-65
2021/05/07 04:16:56;;;;;;;8.13;4.00;;;;;;;-139.48;100.00;61774.03;4992944;28;20411;-65
2021/05/07 04:19:40;;;;;;;4.88;3.60;;;;;;;-139.48;100.00;61774.03;4993037;28;20050;-65
2021/05/07 04:22:24;;;;;;;5.28;3.72;;;;;;;-139.48;100.00;61774.03;4978249;28;20053;-66
2021/05/07 04:25:09;;;;;;;5.50;3.47;;;;;;;-139.48;100.00;61774.03;4991879;28;20081;-66
2021/05/07 04:27:53;;;;;;;4.35;3.50;;;;;;;-139.48;100.00;61774.03;4991767;28;20523;-65
2021/05/07 04:30:37;;;;;;;5.25;3.67;;;;;;;-139.48;100.00;61774.03;4978070;28;20065;-65
2021/05/07 04:33:21;;;;;;;10.23;3.95;;;;;;;-139.48;100.00;61774.03;4992884;28;20049;-65
2021/05/07 04:36:05;;;;;;;5.72;4.30;;;;;;;-139.48;100.00;61774.03;4991968;28;20073;-65
2021/05/07 04:38:54;;;;;;;6.40;4.13;;;;;;;-139.48;100.00;61774.03;4992848;28;20471;-66
2021/05/07 04:41:38;;;;;;;7.97;4.05;;;;;;;-139.48;100.00;61774.03;4996669;28;20046;-66
2021/05/07 04:44:22;;;;;;;5.68;4.07;;;;;;;-139.48;100.00;61774.03;4995651;28;20104;-66
2021/05/07 04:47:06;;;;;;;5.45;3.75;;;;;;;-139.48;100.00;61774.03;4996381;28;20166;-66
2021/05/07 04:49:50;;;;;;;5.10;3.88;;;;;;;-139.48;100.00;61774.03;4995254;28;20419;-66
2021/05/07 04:52:34;;;;;;;5.95;4.10;;;;;;;-139.48;100.00;61774.03;4981722;28;20523;-65
2021/05/07 04:55:18;;;;;;;6.00;4.63;;;;;;;-139.48;100.00;61774.03;4996391;28;20061;-65
2021/05/07 04:58:02;;;;;;;7.18;4.57;;;;;;;-139.48;100.00;61774.03;4996123;28;20445;-65
2021/05/07 05:00:46;;;;;;;6.75;5.10;;;;;;;-139.48;100.00;61774.03;4995258;28;20054;-65
2021/05/07 05:03:30;;;;;;;6.55;4.70;;;;;;;-139.48;100.00;61774.03;4996083;28;20057;-66
2021/05/07 05:06:15;;;;;;;8.60;4.90;;;;;;;-139.48;100.00;61774.03;4995436;28;20085;-66
2021/05/07 05:08:59;;;;;;;7.80;5.13;;;;;;;-139.48;100.00;61774.03;4996150;28;20462;-66
2021/05/07 05:11:43;;;;;;;6.95;5.03;;;;;;;-139.48;100.00;61774.03;4996117;28;20141;-66
2021/05/07 05:14:27;;;;;;;8.40;5.00;;;;;;;-139.48;100.00;61774.03;4994994;28;20466;-66
2021/05/07 05:17:11;;;;;;;8.43;5.63;;;;;;;-139.48;100.00;61774.03;4996074;28;20160;-66
2021/05/07 05:19:55;;;;;;;7.25;5.47;;;;;;;-139.48;100.00;61774.03;4994674;28;20053;-66
2021/05/07 05:22:39;;;;;;;7.22;5.45;;;;;;;-139.48;100.00;61774.03;4995726;28;20561;-66
2021/05/07 05:25:22;;;;;;;6.20;5.05;;;;;;;-139.48;100.00;61774.03;4995700;28;20145;-66
2021/05/07 05:28:06;;;;;;;6.45;5.50;;;;;;;-139.48;100.00;61774.03;4994508;28;20062;-66
2021/05/07 05:30:51;;;;;;;6.75;5.13;;;;;;;-139.48;100.00;61774.03;4994786;28;20049;-66
2021/05/07 05:33:35;;;;;;;11.57;5.60;;;;;;;-139.48;100.00;61774.03;4995510;28;20129;-66
2021/05/07 05:36:19;;;;;;;10.40;5.53;;;;;;;-139.48;100.00;61774.03;4995726;28;20049;-66
2021/05/07 05:39:03;;;;;;;6.88;4.93;;;;;;;-139.48;100.00;61774.03;4995316;28;20530;-66
2021/05/07 05:41:47;;;;;;;8.15;5.40;;;;;;;-139.48;100.00;61774.03;4994552;28;20052;-66
2021/05/07 05:44:31;;;;;;;8.02;5.68;;;;;;;-139.48;100.00;61774.03;4995576;28;20414;-66
2021/05/07 05:47:15;;;;;;;7.20;5.63;;;;;;;-139.48;100.00;61774.03;4995684;28;20482;-66
2021/05/07 05:49:59;;;;;;;9.38;5.45;;;;;;;-139.48;100.00;61774.03;4993828;28;20161;-66
2021/05/07 05:52:43;;;;;;;6.78;5.25;;;;;;;-139.48;100.00;61774.03;4995375;28;20475;-66
2021/05/07 05:55:27;;;;;;;7.20;5.63;;;;;;;-139.48;100.00;61774.03;4995398;28;20141;-65
2021/05/07 05:58:11;;;;;;;10.45;5.53;;;;;;;-139.48;100.00;61774.03;4993804;28;20049;-65
2021/05/07 06:00:55;;;;;;;9.48;5.50;;;;;;;-139.48;100.00;61774.03;4994135;28;20092;-65
2021/05/07 06:03:39;;;;;;;6.63;5.57;;;;;;;-139.48;100.00;61774.03;4994151;28;20049;-65
2021/05/07 06:06:23;;;;;;;7.93;5.80;;;;;;;-139.48;100.00;61774.03;4993955;28;20534;-66
2021/05/07 06:09:07;;;;;;;6.88;5.20;;;;;;;-139.48;100.00;61774.03;4993787;28;20049;-66
2021/05/07 06:11:51;;;;;;;8.95;5.78;;;;;;;-139.48;100.00;61774.03;4995050;28;20049;-66
2021/05/07 06:14:35;;;;;;;8.57;4.70;;;;;;;-139.48;100.00;61774.03;4994180;28;20069;-66
2021/05/07 06:17:19;;;;;;;5.85;4.75;;;;;;;-139.48;100.00;61774.03;4994669;28;20541;-65
2021/05/07 06:20:04;;;;;;;;;;;;;;;-139.48;100.00;61774.03;4993918;28;20052;-65
2021/05/07 06:22:48;;;;;;;5.93;5.25;;;;;;;-139.48;100.00;61774.03;4993825;28;19920;-66
2021/05/07 06:25:32;;;;;;;6.82;4.93;;;;;;;-139.48;100.00;61774.03;4995034;28;20053;-66
2021/05/07 06:28:17;;;;;;;6.78;5.20;;;;;;;-139.48;100.00;61774.03;4993573;28;20518;-66
2021/05/07 06:31:01;;;;;;;6.30;4.57;;;;;;;-139.48;100.00;61774.03;4993612;28;20128;-66
2021/05/07 06:33:45;;;;;;;5.88;4.63;;;;;;;-139.48;100.00;61774.03;4993309;28;20492;-66
2021/05/07 06:36:29;;;;;;;7.28;4.78;;;;;;;-139.48;100.00;61774.03;4979918;28;20133;-66
2021/05/07 06:39:13;;;;;;;6.70;5.03;;;;;;;-139.48;100.00;61774.03;4993050;28;20161;-66
2021/05/07 06:41:57;;;;;;;7.57;5.35;;;;;;;-139.48;100.00;61774.03;4994192;28;20380;-66
2021/05/07 06:44:42;;;;;;;5.43;4.72;;;;;;;-139.48;100.00;61774.03;4993258;28;20126;-66
2021/05/07 06:47:25;;;;;;;7.65;5.18;;;;;;;-139.48;100.00;61774.03;4993515;28;20085;-66
2021/05/07 06:50:11;;;;;;;7.65;5.90;;;;;;;-139.48;100.00;61774.03;4979377;28;20085;-66
2021/05/07 06:52:55;;;;;;;8.32;5.85;;;;;;;-139.48;100.00;61774.03;4993200;28;20048;-66
2021/05/07 06:55:39;;;;;;;6.28;5.13;;;;;;;-139.48;100.00;61774.03;4994047;28;20068;-66
2021/05/07 06:58:23;;;;;;;7.68;5.15;;;;;;;-139.48;100.00;61774.03;4994348;28;20085;-66
2021/05/07 07:01:07;;;;;;;7.18;5.75;;;;;;;-139.48;100.00;61774.03;4992244;28;20140;-66
2021/05/07 07:03:52;;;;;;;7.80;5.82;;;;;;;-139.48;100.00;61774.03;4994049;28;20049;-66
2021/05/07 07:06:36;;;;;;;7.93;6.10;;;;;;;-139.48;100.00;61774.03;4993914;28;20518;-66
2021/05/07 07:09:20;;;;;;;7.75;6.07;;;;;;;-139.48;100.00;61774.03;4993034;28;20046;-66
2021/05/07 07:12:05;;;;;;;7.10;6.03;;;;;;;-139.48;100.00;61774.03;4992903;28;20057;-66
2021/05/07 07:14:48;;;;;;;;;;;;;;;-139.48;100.00;61774.03;4993253;28;20566;-66
2021/05/07 07:17:33;;;;;;;6.85;5.65;;;;;;;-139.48;100.00;61774.03;4978770;28;19920;-66
2021/05/07 07:20:17;;;;;;;7.95;5.45;;;;;;;-139.48;100.00;61774.03;4979245;28;20045;-66
2021/05/07 07:23:01;;;;;;;6.63;5.70;;;;;;;-139.48;100.00;61774.03;4992534;28;20049;-66
2021/05/07 07:25:45;;;;;;;8.82;5.38;;;;;;;-139.48;100.00;61774.03;4992410;28;20048;-66
2021/05/07 07:28:30;;;;;;;6.90;5.90;;;;;;;-139.48;100.00;61774.03;4993378;28;20502;-67
2021/05/07 07:31:14;;;;;;;8.27;5.18;;;;;;;-139.48;100.00;61774.03;4992635;28;20057;-66
2021/05/07 07:33:59;;;;;;;9.18;5.55;;;;;;;-139.48;100.00;61774.03;4993637;28;20498;-66
2021/05/07 07:36:43;;;;;;;6.53;5.28;;;;;;;-139.48;100.00;61774.03;4992565;28;20566;-67
2021/05/07 07:39:27;;;;;;;7.65;5.53;;;;;;;-139.48;100.00;61774.03;4992400;28;20181;-66
2021/05/07 07:42:11;;;;;;;9.00;6.20;;;;;;;-139.48;100.00;61774.03;4992276;28;20057;-66
2021/05/07 07:44:55;;;;;;;6.68;5.85;;;;;;;-139.48;100.00;61774.03;4993048;28;20080;-66
2021/05/07 07:47:40;;;;;;;8.18;5.10;;;;;;;-139.48;100.00;61774.03;4992033;28;20049;-66
2021/05/07 07:50:24;;;;;;;5.75;5.15;;;;;;;-139.48;100.00;61774.03;4978544;28;20126;-66
2021/05/07 07:53:09;;;;;;;11.50;5.30;;;;;;;-139.48;100.00;61774.03;4992335;28;20092;-67
2021/05/07 07:55:53;;;;;;;6.95;5.05;;;;;;;-139.48;100.00;61774.03;4993410;28;20474;-67
2021/05/07 07:58:37;;;;;;;;;;;;;;;-139.48;100.00;61774.03;4992383;28;20112;-66
2021/05/07 08:01:21;;;;;;;5.82;4.85;;;;;;;-139.48;100.00;61774.03;4992287;28;20087;-67
2021/05/07 08:04:05;;;;;;;7.18;4.80;;;;;;;-139.48;100.00;61774.03;4992593;28;20053;-67
2021/05/07 08:06:48;;;;;;;7.25;4.60;;;;;;;-139.48;100.00;61774.03;4993109;28;20049;-66
2021/05/07 08:09:32;;;;;;;9.65;5.13;;;;;;;-139.48;100.00;61774.03;4991823;28;20407;-67
2021/05/07 08:12:16;;;;;;;7.43;4.35;;;;;;;-139.48;100.00;61774.03;4992455;28;20061;-67
2021/05/07 08:15:00;;;;;;;6.72;4.15;;;;;;;-139.48;100.00;61774.03;4996671;28;20141;-67
2021/05/07 08:17:46;;;;;;;10.07;4.55;;;;;;;-139.48;100.00;61774.03;4983917;28;20053;-66
2021/05/07 08:20:30;;;;;;;5.10;4.00;;;;;;;-139.48;100.00;61774.03;4982522;28;20085;-67
2021/05/07 08:23:14;;;;;;;4.75;3.83;;;;;;;-139.48;100.00;61774.03;4996795;28;20094;-66
2021/05/07 08:25:58;;;;;;;8.32;4.30;;;;;;;-139.48;100.00;61774.03;4997013;28;20077;-66
2021/05/07 08:28:41;;;;;;;6.22;4.95;;;;;;;-139.48;100.00;61774.03;4981961;28;20407;-67
2021/05/07 08:31:26;;;;;;;6.38;4.80;;;;;;;-139.48;100.00;61774.03;4996929;28;20057;-67
2021/05/07 08:34:09;;;;;;;5.55;4.28;;;;;;;-139.48;100.00;61774.03;4996873;28;20049;-67
2021/05/07 08:36:53;;;;;;;5.68;3.67;;;;;;;-139.48;100.00;61774.03;4982187;28;20534;-67
2021/05/07 08:39:38;;;;;;;4.65;3.58;;;;;;;-139.48;100.00;61774.03;4995576;28;20049;-67
2021/05/07 08:42:22;;;;;;;4.20;3.80;;;;;;;-139.48;100.00;61774.03;4995355;28;20482;-67
2021/05/07 08:45:07;;;;;;;5.68;3.83;;;;;;;-139.48;100.00;61774.03;4981506;28;20181;-67
2021/05/07 08:47:53;;;;;;;5.95;3.97;;;;;;;-139.48;100.00;61774.03;4995759;28;20069;-66
2021/05/07 08:50:36;;;;;;;5.28;4.00;;;;;;;-139.48;100.00;61774.03;4996708;28;20049;-67
2021/05/07 08:53:21;;;;;;;7.68;4.20;;;;;;;-139.48;100.00;61774.03;4995157;28;20053;-67
2021/05/07 08:56:06;;;;;;;4.93;3.30;;;;;;;-139.48;100.00;61774.03;4995402;28;20160;-67
2021/05/07 08:58:50;;;;;;;5.38;3.80;;;;;;;-139.48;100.00;61774.03;4996233;28;20050;-67
2021/05/07 09:01:48;;;;;;;6.68;4.00;;;;;;;-139.48;100.00;61774.03;4981345;28;20049;-67
2021/05/07 09:04:32;;;;;;;4.75;3.58;;;;;;;-139.48;100.00;61774.03;4995085;28;20060;-67
2021/05/07 09:07:16;;;;;;;6.50;4.22;;;;;;;-139.48;100.00;61774.03;4996278;28;20096;-67
2021/05/07 09:10:02;;;;;;;5.43;3.42;;;;;;;-139.48;100.00;61774.03;4981106;28;20411;-67
2021/05/07 09:12:54;;;;;;;3.70;2.97;;;;;;;-139.48;100.00;61774.03;4981468;28;20050;-67
2021/05/07 09:15:43;;;;;;;4.47;3.53;;;;;;;-139.48;100.00;61774.03;4994932;28;20045;-66
2021/05/07 09:18:27;;;;;;;5.18;3.20;;;;;;;-139.48;100.00;61774.03;4994766;28;20097;-66
2021/05/07 09:21:14;;;;;;;4.95;3.70;;;;;;;-139.48;100.00;61774.03;4981439;28;20050;-67
2021/05/07 09:24:07;;;;;;;5.57;3.40;;;;;;;-139.48;100.00;61774.03;4994224;28;20135;-67
2021/05/07 09:26:51;;;;;;;3.83;3.13;;;;;;;-139.48;100.00;61774.03;4994653;28;20049;-67
2021/05/07 09:29:36;;;;;;;4.40;2.83;;;;;;;-139.48;100.00;61774.03;4995670;28;20084;-67
2021/05/07 09:32:48;;;;;;;4.60;3.70;;;;;;;-139.48;100.00;61774.03;4994806;28;20450;-67
2021/05/07 09:35:33;;;;;;;5.85;3.90;;;;;;;-139.48;100.00;61774.03;4994418;28;20137;-67
2021/05/07 09:38:18;;;;;;;7.60;4.00;;;;;;;-139.48;100.00;61774.03;4995644;28;20069;-67
2021/05/07 09:41:03;;;;;;;6.05;3.55;;;;;;;-139.48;100.00;61774.03;4994577;28;20057;-67
2021/05/07 09:43:48;;;;;;;3.92;3.33;;;;;;;-139.48;100.00;61774.03;4995598;28;20403;-67
2021/05/07 09:46:35;;;;;;;5.50;4.05;;;;;;;-139.48;100.00;61774.03;4994494;28;20458;-67
2021/05/07 09:49:23;;;;;;;5.65;3.72;;;;;;;-139.48;100.00;61774.03;4994109;28;20080;-67
2021/05/07 09:52:08;;;;;;;5.00;3.53;;;;;;;-139.48;100.00;61774.03;4994127;28;20053;-67
2021/05/07 09:54:52;;;;;;;6.15;3.80;;;;;;;-139.48;100.00;61774.03;4994254;28;20045;-67
2021/05/07 09:57:37;;;;;;;3.55;2.90;;;;;;;-139.48;100.00;61774.03;4995300;28;20049;-67
2021/05/07 10:00:21;;;;;;;4.88;3.90;;;;;;;-139.48;100.00;61774.03;4993954;28;20097;-67
2021/05/07 10:03:06;;;;;;;6.70;3.83;;;;;;;-139.48;100.00;61774.03;4980505;28;20057;-67
2021/05/07 10:05:51;;;;;;;5.97;3.90;;;;;;;-139.48;100.00;61774.03;4995195;28;20052;-67
2021/05/07 10:08:45;;;;;;;3.88;3.40;;;;;;;-139.48;100.00;61774.03;4994806;28;20524;-67
2021/05/07 10:11:40;;;;;;;7.10;4.03;;;;;;;-139.48;100.00;61774.03;4993881;28;20057;-66
2021/05/07 10:14:25;;;;;;;5.40;3.58;;;;;;;-139.48;100.00;61774.03;4980268;28;20053;-67
2021/05/07 10:17:11;;;;;;;6.95;3.55;;;;;;;-139.48;100.00;61774.03;4993972;28;20045;-67
2021/05/07 10:19:55;;;;;;;4.32;3.45;;;;;;;-139.48;100.00;61774.03;4993608;28;20045;-67
2021/05/07 10:22:38;;;;;;;6.55;3.40;;;;;;;-139.48;100.00;61774.03;4980041;28;20113;-67
2021/05/07 10:25:24;;;;;;;5.00;3.35;;;;;;;-139.48;100.00;61774.03;4993824;28;20073;-67
2021/05/07 10:28:14;;;;;;;6.40;3.47;;;;;;;-139.48;100.00;61774.03;4993546;28;20096;-66
2021/05/07 10:31:07;;;;;;;6.60;3.20;;;;;;;-139.48;100.00;61774.03;4993309;28;20049;-67
2021/05/07 10:34:02;;;;;;;5.38;3.78;;;;;;;-139.48;100.00;61774.03;4993590;28;20186;-67
2021/05/07 10:36:51;;;;;;;4.95;3.50;;;;;;;-139.48;100.00;61774.03;4979440;28;20046;-67
2021/05/07 10:39:35;;;;;;;4.63;3.50;;;;;;;-139.48;100.00;61774.03;4993242;28;20053;-67
2021/05/07 10:42:20;;;;;;;6.32;3.45;;;;;;;-139.48;100.00;61774.03;4993348;28;20057;-67
2021/05/07 10:45:05;;;;;;;4.45;3.50;;;;;;;-139.48;100.00;61774.03;4993397;28;20411;-67
2021/05/07 10:47:50;;;;;;;4.55;3.60;;;;;;;-139.48;100.00;61774.03;4993086;28;20053;-67
2021/05/07 10:50:39;;;;;;;3.72;3.30;;;;;;;-139.48;100.00;61774.03;4993533;28;20057;-67
2021/05/07 10:53:25;;;;;;;4.65;3.03;;;;;;;-139.48;100.00;61774.03;4992971;28;20109;-65
2021/05/07 10:56:24;;;;;;;5.03;3.13;;;;;;;-139.48;100.00;61774.03;4993210;28;20410;-67
2021/05/07 10:59:15;;;;;;;4.90;3.40;;;;;;;-139.48;100.00;61774.03;4993758;28;20166;-67
2021/05/07 11:02:02;;;;;;;4.55;2.80;;;;;;;-139.48;100.00;61774.03;4994149;28;20132;-67
2021/05/07 11:04:47;;;;;;;5.88;3.58;;;;;;;-139.48;100.00;61774.03;4993881;28;20049;-66
2021/05/07 11:07:33;;;;;;;3.45;2.58;;;;;;;-139.48;100.00;61774.03;4992812;28;20100;-67
2021/05/07 11:10:18;;;;;;;5.68;3.15;;;;;;;-139.48;100.00;61774.03;4992678;28;20093;-67
2021/05/07 11:13:02;;;;;;;6.97;3.72;;;;;;;-139.48;100.00;61774.03;4992687;28;20161;-67
2021/05/07 11:15:57;;;;;;;5.18;3.83;;;;;;;-139.48;100.00;61774.03;4993706;28;20069;-67
2021/05/07 11:18:47;;;;;;;4.05;3.65;;;;;;;-139.48;100.00;61774.03;4978651;28;20131;-67
2021/05/07 11:21:31;;;;;;;5.20;4.03;;;;;;;-139.48;100.00;61774.03;4979141;28;20048;-67
2021/05/07 11:24:15;;;;;;;6.05;3.95;;;;;;;-139.48;100.00;61774.03;4992427;28;20462;-67
2021/05/07 11:27:00;;;;;;;4.78;3.80;;;;;;;-139.48;100.00;61774.03;4993708;28;20104;-67
2021/05/07 11:29:44;;;;;;;5.18;3.47;;;;;;;-139.48;100.00;61774.03;4978708;28;20046;-67
2021/05/07 11:32:29;;;;;;;5.75;3.42;;;;;;;-139.48;100.00;61774.03;4992588;28;20463;-67
2021/05/07 11:35:13;;;;;;;5.88;3.33;;;;;;;-139.48;100.00;61774.03;4992581;28;20133;-67
2021/05/07 11:37:56;;;;;;;5.47;3.35;;;;;;;-139.48;100.00;61774.03;4992466;28;20050;-66
2021/05/07 11:40:41;;;;;;;6.45;3.38;;;;;;;-139.48;100.00;61774.03;4992481;28;20046;-67
2021/05/07 11:43:27;;;;;;;5.40;3.30;;;;;;;-139.48;100.00;61774.03;4992470;28;20052;-67
2021/05/07 11:46:11;;;;;;;4.70;2.92;;;;;;;-139.48;100.00;61774.03;4992437;28;20124;-67
2021/05/07 11:48:55;;;;;;;3.53;2.60;;;;;;;-139.48;100.00;61774.03;4991791;28;20053;-67
2021/05/07 11:51:46;;;;;;;2.95;2.40;;;;;;;-139.48;100.00;61774.03;4993394;28;20085;-65
2021/05/07 11:54:43;;;;;;;3.20;2.42;;;;;;;-139.48;100.00;61774.03;4992151;28;20057;-65
2021/05/07 11:57:30;;;;;;;4.32;2.85;;;;;;;-139.48;100.00;61774.03;4992488;28;20104;-65
2021/05/07 12:00:20;;;;;;;3.47;2.50;;;;;;;-139.48;100.00;61774.03;4991979;28;20470;-65
2021/05/07 12:03:14;;;;;;;2.70;2.50;;;;;;;-139.48;100.00;61774.03;4993170;28;20048;-67
2021/05/07 12:05:58;;;;;;;2.78;2.40;;;;;;;-139.48;100.00;61774.03;4992995;28;20100;-67
2021/05/07 12:08:42;;;;;;;4.60;2.92;;;;;;;-139.48;100.00;61774.03;4992258;28;20045;-67
2021/05/07 12:11:26;;;;;;;3.72;2.40;;;;;;;-139.48;100.00;61774.03;4992289;28;20050;-67
2021/05/07 12:14:12;;;;;;;9.05;2.97;;;;;;;-139.48;100.00;61774.03;4993043;28;20144;-67
2021/05/07 12:17:00;;;;;;;3.13;2.58;;;;;;;-139.48;100.00;61774.03;4992179;28;20057;-67
2021/05/07 12:19:44;;;;;;;3.03;2.45;;;;;;;-139.48;100.00;61774.03;4978092;28;20049;-67
2021/05/07 12:22:28;;;;;;;5.43;2.33;;;;;;;-139.48;100.00;61774.03;4991842;28;20509;-67
2021/05/07 12:25:17;;;;;;;3.45;1.95;;;;;;;-139.48;100.00;61774.03;4992104;28;20052;-67
2021/05/07 12:28:15;;;;;;;2.00;1.75;;;;;;;-139.48;100.00;61774.03;4992894;28;20069;-65
2021/05/07 12:31:02;;;;;;;2.35;1.90;;;;;;;-139.48;100.00;61774.03;4978527;28;20383;-66